createdAt,value
2018-05-12T00:00:40.218Z,74.26
2018-05-12T00:02:33.438Z,74.49
2018-05-12T00:03:32.605Z,74.58
2018-05-12T00:05:27.176Z,74.74
2018-05-12T00:06:26.036Z,74.84
2018-05-12T00:08:19.308Z,75.31
2018-05-12T00:09:18.862Z,75.51
2018-05-12T00:11:12.590Z,75.70
2018-05-12T00:12:12.178Z,75.51
2018-05-12T00:14:05.756Z,75.70
2018-05-12T00:15:05.642Z,75.98
2018-05-12T00:17:00.440Z,76.23
2018-05-12T00:17:58.958Z,76.18
2018-05-12T00:19:52.778Z,76.90
2018-05-12T00:20:52.405Z,77.00
2018-05-12T00:22:45.639Z,77.19
2018-05-12T00:23:45.166Z,76.90
2018-05-12T00:25:43.376Z,77.19
2018-05-12T00:26:43.040Z,77.38
2018-05-12T00:28:36.884Z,77.86
2018-05-12T00:29:37.260Z,77.95
2018-05-12T00:31:30.210Z,77.76
2018-05-12T00:32:30.227Z,77.38
2018-05-12T00:34:24.645Z,77.48
2018-05-12T00:35:23.216Z,77.70
2018-05-12T00:37:16.891Z,77.76
2018-05-12T00:38:16.493Z,77.57
2018-05-12T00:40:10.782Z,78.19
2018-05-12T00:41:09.862Z,77.99
2018-05-12T00:43:03.756Z,77.80
2018-05-12T00:44:03.647Z,77.42
2018-05-12T00:45:57.659Z,77.51
2018-05-12T00:46:56.728Z,77.33
2018-05-12T00:48:50.882Z,77.42
2018-05-12T00:49:49.976Z,77.13
2018-05-12T00:51:43.755Z,77.23
2018-05-12T00:52:43.777Z,76.94
2018-05-12T00:54:37.673Z,77.13
2018-05-12T00:55:36.802Z,76.84
2018-05-12T00:57:30.498Z,76.84
2018-05-12T00:58:30.375Z,76.84
2018-05-12T01:00:23.905Z,77.13
2018-05-12T01:01:24.017Z,77.80
2018-05-12T01:03:17.393Z,77.70
2018-05-12T01:04:16.872Z,77.90
2018-05-12T01:06:12.125Z,78.66
2018-05-12T01:07:10.606Z,78.28
2018-05-12T01:09:03.049Z,79.24
2018-05-12T01:10:03.037Z,78.86
2018-05-12T01:11:56.461Z,78.66
2018-05-12T01:12:56.363Z,79.05
2018-05-12T01:14:50.321Z,79.14
2018-05-12T01:15:50.551Z,78.57
2018-05-12T01:17:42.999Z,78.86
2018-05-12T01:18:42.727Z,79.05
2018-05-12T01:20:35.982Z,79.68
2018-05-12T01:21:35.659Z,79.77
2018-05-12T01:23:29.480Z,80.06
2018-05-12T01:24:29.139Z,80.63
2018-05-12T01:26:22.513Z,80.54
2018-05-12T01:27:22.727Z,80.44
2018-05-12T01:29:16.073Z,80.82
2018-05-12T01:30:15.877Z,81.26
2018-05-12T01:32:09.300Z,81.07
2018-05-12T01:33:09.794Z,81.16
2018-05-12T01:35:02.283Z,81.26
2018-05-12T01:36:02.092Z,81.93
2018-05-12T01:37:55.471Z,81.93
2018-05-12T01:38:55.455Z,82.03
2018-05-12T01:40:48.518Z,82.31
2018-05-12T01:41:48.325Z,82.22
2018-05-12T01:43:41.883Z,82.51
2018-05-12T01:44:41.695Z,82.60
2018-05-12T01:46:34.804Z,83.17
2018-05-12T01:47:35.139Z,83.08
2018-05-12T01:49:27.968Z,83.46
2018-05-12T01:50:27.924Z,83.13
2018-05-12T01:52:21.564Z,83.80
2018-05-12T01:53:21.284Z,84.09
2018-05-12T01:55:15.966Z,84.38
2018-05-12T01:56:14.648Z,84.28
2018-05-12T01:58:09.056Z,84.66
2018-05-12T01:59:09.264Z,85.05
2018-05-12T02:01:02.622Z,85.14
2018-05-12T02:02:02.379Z,85.24
2018-05-12T02:03:55.416Z,84.95
2018-05-12T02:04:55.241Z,85.42
2018-05-12T02:06:48.641Z,85.62
2018-05-12T02:07:48.607Z,85.19
2018-05-12T02:09:42.570Z,85.67
2018-05-12T02:10:41.974Z,85.77
2018-05-12T02:12:35.279Z,86.15
2018-05-12T02:13:35.913Z,85.96
2018-05-12T02:15:28.722Z,86.15
2018-05-12T02:16:28.298Z,86.91
2018-05-12T02:18:21.691Z,86.34
2018-05-12T02:19:21.646Z,86.24
2018-05-12T02:21:15.072Z,86.63
2018-05-12T02:22:15.028Z,86.34
2018-05-12T02:24:08.753Z,86.53
2018-05-12T02:25:08.398Z,87.20
2018-05-12T02:27:01.775Z,87.20
2018-05-12T02:28:01.743Z,87.39
2018-05-12T02:29:54.764Z,87.29
2018-05-12T02:30:54.638Z,88.15
2018-05-12T02:32:47.769Z,88.20
2018-05-12T02:33:47.482Z,88.30
2018-05-12T02:35:40.391Z,88.30
2018-05-12T02:36:40.348Z,88.82
2018-05-12T02:38:33.439Z,88.49
2018-05-12T02:39:33.213Z,88.49
2018-05-12T02:41:26.717Z,88.40
2018-05-12T02:42:26.583Z,88.78
2018-05-12T02:44:20.541Z,89.06
2018-05-12T02:45:19.952Z,88.87
2018-05-12T02:47:13.333Z,89.25
2018-05-12T02:48:13.303Z,89.35
2018-05-12T02:50:06.773Z,88.82
2018-05-12T02:51:06.665Z,88.54
2018-05-12T02:53:00.116Z,88.92
2018-05-12T02:54:00.031Z,88.92
2018-05-12T02:55:53.406Z,89.01
2018-05-12T02:56:53.390Z,89.30
2018-05-12T02:58:46.812Z,88.54
2018-05-12T02:59:46.757Z,88.82
2018-05-12T03:01:39.774Z,88.54
2018-05-12T03:02:39.616Z,89.20
2018-05-12T03:04:32.513Z,88.63
2018-05-12T03:05:32.486Z,89.01
2018-05-12T03:07:25.420Z,89.30
2018-05-12T03:08:25.349Z,89.39
2018-05-12T03:10:20.002Z,88.82
2018-05-12T03:11:19.715Z,89.39
2018-05-12T03:13:13.087Z,89.25
2018-05-12T03:14:13.070Z,89.64
2018-05-12T03:16:06.647Z,89.64
2018-05-12T03:17:06.444Z,89.54
2018-05-12T03:18:59.330Z,89.92
2018-05-12T03:19:59.300Z,89.35
2018-05-12T03:21:52.694Z,89.92
2018-05-12T03:22:52.653Z,89.64
2018-05-12T03:24:46.270Z,90.31
2018-05-12T03:25:46.025Z,90.40
2018-05-12T03:27:39.156Z,90.11
2018-05-12T03:28:38.897Z,90.31
2018-05-12T03:30:31.982Z,90.50
2018-05-12T03:31:31.756Z,90.50
2018-05-12T03:33:25.242Z,90.31
2018-05-12T03:34:25.124Z,90.78
2018-05-12T03:36:20.065Z,91.16
2018-05-12T03:37:18.479Z,90.40
2018-05-12T03:39:13.409Z,90.78
2018-05-12T03:40:11.871Z,90.69
2018-05-12T03:42:06.613Z,90.59
2018-05-12T03:43:06.202Z,90.69
2018-05-12T03:44:59.619Z,91.07
2018-05-12T03:45:59.837Z,91.36
2018-05-12T03:47:52.999Z,91.26
2018-05-12T03:48:52.452Z,91.36
2018-05-12T03:50:46.161Z,91.74
2018-05-12T03:51:45.805Z,92.21
2018-05-12T03:53:40.607Z,91.93
2018-05-12T03:54:40.772Z,91.83
2018-05-12T03:56:33.960Z,92.50
2018-05-12T03:57:33.537Z,92.12
2018-05-12T03:59:26.944Z,92.31
2018-05-12T04:00:26.891Z,92.21
2018-05-12T04:02:20.340Z,91.93
2018-05-12T04:03:20.281Z,91.93
2018-05-12T04:05:14.079Z,92.21
2018-05-12T04:06:13.652Z,91.83
2018-05-12T04:08:06.745Z,91.07
2018-05-12T04:09:06.539Z,91.45
2018-05-12T04:10:59.474Z,91.45
2018-05-12T04:11:59.381Z,91.26
2018-05-12T04:13:54.004Z,91.07
2018-05-12T04:14:53.763Z,91.16
2018-05-12T04:16:48.107Z,91.55
2018-05-12T04:17:48.079Z,90.78
2018-05-12T04:19:41.298Z,90.21
2018-05-12T04:20:40.960Z,90.59
2018-05-12T04:22:34.909Z,90.59
2018-05-12T04:23:34.863Z,90.97
2018-05-12T04:25:28.279Z,90.59
2018-05-12T04:26:28.823Z,90.45
2018-05-12T04:28:21.176Z,90.64
2018-05-12T04:29:21.673Z,90.83
2018-05-12T04:31:14.006Z,90.06
2018-05-12T04:32:13.982Z,90.25
2018-05-12T04:34:06.857Z,90.35
2018-05-12T04:35:06.839Z,90.16
2018-05-12T04:37:00.247Z,89.78
2018-05-12T04:38:00.201Z,90.45
2018-05-12T04:39:53.108Z,90.25
2018-05-12T04:40:53.091Z,89.87
2018-05-12T04:42:46.628Z,90.16
2018-05-12T04:43:46.437Z,89.68
2018-05-12T04:45:39.966Z,89.73
2018-05-12T04:46:39.796Z,88.96
2018-05-12T04:48:34.479Z,89.53
2018-05-12T04:49:33.513Z,89.63
2018-05-12T04:51:26.391Z,89.63
2018-05-12T04:52:26.372Z,88.87
2018-05-12T04:54:19.414Z,88.48
2018-05-12T04:55:19.237Z,88.58
2018-05-12T04:57:12.818Z,88.20
2018-05-12T04:58:12.607Z,88.77
2018-05-12T05:00:06.353Z,88.58
2018-05-12T05:01:05.969Z,88.72
2018-05-12T05:02:59.662Z,88.68
2018-05-12T05:03:59.324Z,88.68
2018-05-12T05:05:53.566Z,88.72
2018-05-12T05:06:53.278Z,88.62
2018-05-12T05:08:48.056Z,88.72
2018-05-12T05:09:48.018Z,88.72
2018-05-12T05:11:41.376Z,87.95
2018-05-12T05:12:41.351Z,87.09
2018-05-12T05:14:34.722Z,85.89
2018-05-12T05:15:34.703Z,84.69
2018-05-12T05:17:28.662Z,82.87
2018-05-12T05:18:28.684Z,82.06
2018-05-12T05:20:21.542Z,81.13
2018-05-12T05:21:21.382Z,80.08
2018-05-12T05:23:14.780Z,79.16
2018-05-12T05:24:14.823Z,77.82
2018-05-12T05:26:08.190Z,77.00
2018-05-12T05:27:08.476Z,76.17
2018-05-12T05:29:01.530Z,74.73
2018-05-12T05:30:01.199Z,73.04
2018-05-12T05:31:54.852Z,72.56
2018-05-12T05:32:54.552Z,72.18
2018-05-12T05:34:47.836Z,71.61
2018-05-12T05:35:47.445Z,71.31
2018-05-12T05:37:40.775Z,71.31
2018-05-12T05:38:40.390Z,71.61
2018-05-12T05:40:34.226Z,70.68
2018-05-12T05:41:34.169Z,70.68
2018-05-12T05:43:27.495Z,69.66
2018-05-12T05:44:27.524Z,69.56
2018-05-12T05:46:20.885Z,69.37
2018-05-12T05:47:20.763Z,69.50
2018-05-12T05:49:15.193Z,68.54
2018-05-12T05:50:15.228Z,67.71
2018-05-12T05:52:10.211Z,66.55
2018-05-12T05:53:09.512Z,66.17
2018-05-12T05:55:03.515Z,65.69
2018-05-12T05:56:03.489Z,65.81
2018-05-12T05:57:56.756Z,65.33
2018-05-12T05:58:56.018Z,64.86
2018-05-12T06:00:49.400Z,64.12
2018-05-12T06:01:49.305Z,63.15
2018-05-12T06:03:44.302Z,62.60
2018-05-12T06:04:43.732Z,63.28
2018-05-12T06:06:38.691Z,61.55
2018-05-12T06:07:38.076Z,61.35
2018-05-12T06:09:31.023Z,62.06
2018-05-12T06:10:30.960Z,61.68
2018-05-12T06:12:24.437Z,60.42
2018-05-12T06:13:24.379Z,60.55
2018-05-12T06:15:16.884Z,60.16
2018-05-12T06:16:16.854Z,60.38
2018-05-12T06:18:10.974Z,60.00
2018-05-12T06:19:10.597Z,58.94
2018-05-12T06:21:03.141Z,58.84
2018-05-12T06:22:03.128Z,58.10
2018-05-12T06:23:56.039Z,57.52
2018-05-12T06:24:56.027Z,56.65
2018-05-12T06:26:49.159Z,56.65
2018-05-12T06:27:48.994Z,57.04
2018-05-12T06:29:41.841Z,57.54
2018-05-12T06:30:41.803Z,56.68
2018-05-12T06:32:35.199Z,57.09
2018-05-12T06:33:35.244Z,56.80
2018-05-12T06:35:28.092Z,55.93
2018-05-12T06:36:28.104Z,55.87
2018-05-12T06:38:21.373Z,55.67
2018-05-12T06:39:21.271Z,54.71
2018-05-12T06:41:14.718Z,55.67
2018-05-12T06:42:14.772Z,56.05
2018-05-12T06:44:08.276Z,56.73
2018-05-12T06:45:09.161Z,54.80
2018-05-12T06:47:00.724Z,53.77
2018-05-12T06:48:00.338Z,54.32
2018-05-12T06:49:54.113Z,54.61
2018-05-12T06:50:54.037Z,54.71
2018-05-12T06:52:47.256Z,55.09
2018-05-12T06:53:47.505Z,55.57
2018-05-12T06:55:42.176Z,54.83
2018-05-12T06:56:41.857Z,54.93
2018-05-12T06:58:34.956Z,53.67
2018-05-12T06:59:34.521Z,54.15
2018-05-12T07:01:27.926Z,54.99
2018-05-12T07:02:27.899Z,54.35
2018-05-12T07:04:21.315Z,54.25
2018-05-12T07:05:21.203Z,54.15
2018-05-12T07:07:14.590Z,54.15
2018-05-12T07:08:14.600Z,54.15
2018-05-12T07:10:08.068Z,53.86
2018-05-12T07:11:07.494Z,54.35
2018-05-12T07:13:00.401Z,53.57
2018-05-12T07:14:00.358Z,54.53
2018-05-12T07:15:53.199Z,53.77
2018-05-12T07:16:53.258Z,54.25
2018-05-12T07:18:46.141Z,54.83
2018-05-12T07:19:46.159Z,54.83
2018-05-12T07:21:39.039Z,54.63
2018-05-12T07:22:39.075Z,53.38
2018-05-12T07:24:32.047Z,53.77
2018-05-12T07:25:31.981Z,54.35
2018-05-12T07:27:25.135Z,53.77
2018-05-12T07:28:25.416Z,53.47
2018-05-12T07:30:19.755Z,53.11
2018-05-12T07:31:18.799Z,53.41
2018-05-12T07:33:11.628Z,53.41
2018-05-12T07:34:11.663Z,54.08
2018-05-12T07:36:04.601Z,53.79
2018-05-12T07:37:06.074Z,53.41
2018-05-12T07:38:58.066Z,53.79
2018-05-12T07:39:57.656Z,54.08
2018-05-12T07:41:51.462Z,53.31
2018-05-12T07:42:51.304Z,53.41
2018-05-12T07:44:44.754Z,54.21
2018-05-12T07:45:45.793Z,53.72
2018-05-12T07:47:37.762Z,52.17
2018-05-12T07:48:37.736Z,52.95
2018-05-12T07:50:30.663Z,53.23
2018-05-12T07:51:30.701Z,52.85
2018-05-12T07:53:24.066Z,52.78
2018-05-12T07:54:23.980Z,52.36
2018-05-12T07:56:17.821Z,53.04
2018-05-12T07:57:17.447Z,52.78
2018-05-12T07:59:10.583Z,51.98
2018-05-12T08:00:10.478Z,52.36
2018-05-12T08:02:04.216Z,52.95
2018-05-12T08:03:03.929Z,52.95
2018-05-12T08:04:57.713Z,52.17
2018-05-12T08:05:57.742Z,51.32
2018-05-12T08:07:51.797Z,51.23
2018-05-12T08:08:51.645Z,52.29
2018-05-12T08:10:46.840Z,51.23
2018-05-12T08:11:44.984Z,51.62
2018-05-12T08:13:38.462Z,50.74
2018-05-12T08:14:38.394Z,50.74
2018-05-12T08:16:32.167Z,50.84
2018-05-12T08:17:31.816Z,51.42
2018-05-12T08:19:25.736Z,50.09
2018-05-12T08:20:25.005Z,50.07
2018-05-12T08:22:20.065Z,49.87
2018-05-12T08:23:18.414Z,50.35
2018-05-12T08:25:12.482Z,49.68
2018-05-12T08:26:11.610Z,49.68
2018-05-12T08:28:05.331Z,49.49
2018-05-12T08:29:04.970Z,49.68
2018-05-12T08:30:58.710Z,48.71
2018-05-12T08:31:58.806Z,48.22
2018-05-12T08:34:05.916Z,49.29
2018-05-12T08:34:52.754Z,49.39
2018-05-12T08:36:44.721Z,46.67
2018-05-12T08:37:45.191Z,46.58
2018-05-12T08:39:38.089Z,47.36
2018-05-12T08:40:37.725Z,46.77
2018-05-12T08:42:31.445Z,45.13
2018-05-12T08:43:31.075Z,45.90
2018-05-12T08:45:23.928Z,46.77
2018-05-12T08:46:23.931Z,47.16
2018-05-12T08:48:17.386Z,47.45
2018-05-12T08:49:16.928Z,48.22
2018-05-12T08:51:10.503Z,44.26
2018-05-12T08:52:09.818Z,40.48
2018-05-12T08:54:03.235Z,41.16
2018-05-12T08:55:03.208Z,40.48
2018-05-12T08:56:56.334Z,42.03
2018-05-12T08:57:56.134Z,42.13
2018-05-12T08:59:49.269Z,43.48
2018-05-12T09:00:49.032Z,43.09
2018-05-12T09:02:42.172Z,42.13
2018-05-12T09:03:41.945Z,42.90
2018-05-12T09:05:34.848Z,42.00
2018-05-12T09:06:34.814Z,40.65
2018-05-12T09:08:27.704Z,41.91
2018-05-12T09:09:27.730Z,43.07
2018-05-12T09:11:20.836Z,40.77
2018-05-12T09:12:20.586Z,41.16
2018-05-12T09:14:13.512Z,38.83
2018-05-12T09:15:13.493Z,39.03
2018-05-12T09:17:07.122Z,39.22
2018-05-12T09:18:06.885Z,38.45
2018-05-12T09:20:00.522Z,38.13
2018-05-12T09:21:00.264Z,39.32
2018-05-12T09:22:53.918Z,36.80
2018-05-12T09:23:53.693Z,36.68
2018-05-12T09:25:47.138Z,36.80
2018-05-12T09:26:47.022Z,37.48
2018-05-12T09:28:40.454Z,36.60
2018-05-12T09:29:40.419Z,36.60
2018-05-12T09:31:34.092Z,35.23
2018-05-12T09:32:33.815Z,35.72
2018-05-12T09:34:26.927Z,36.00
2018-05-12T09:35:26.711Z,35.04
2018-05-12T09:37:20.486Z,35.13
2018-05-12T09:38:19.606Z,36.20
2018-05-12T09:40:13.009Z,36.00
2018-05-12T09:41:12.975Z,35.64
2018-05-12T09:43:06.136Z,36.02
2018-05-12T09:44:05.888Z,36.22
2018-05-12T09:45:59.049Z,37.87
2018-05-12T09:46:58.781Z,38.83
2018-05-12T09:48:51.717Z,37.79
2018-05-12T09:49:51.664Z,37.96
2018-05-12T09:51:45.343Z,36.90
2018-05-12T09:52:45.063Z,37.09
2018-05-12T09:54:37.968Z,36.90
2018-05-12T09:55:37.937Z,36.22
2018-05-12T09:57:31.971Z,37.09
2018-05-12T09:58:31.418Z,37.67
2018-05-12T10:00:24.806Z,37.07
2018-05-12T10:01:24.745Z,37.87
2018-05-12T10:03:18.692Z,37.36
2018-05-12T10:04:18.121Z,37.26
2018-05-12T10:06:11.513Z,37.65
2018-05-12T10:07:11.506Z,38.04
2018-05-12T10:09:04.726Z,38.23
2018-05-12T10:10:04.400Z,37.94
2018-05-12T10:11:57.621Z,37.36
2018-05-12T10:12:57.315Z,36.20
2018-05-12T10:14:50.462Z,35.33
2018-05-12T10:15:50.243Z,36.00
2018-05-12T10:17:43.602Z,35.52
2018-05-12T10:18:43.915Z,36.00
2018-05-12T10:20:36.512Z,36.49
2018-05-12T10:21:36.497Z,35.13
2018-05-12T10:23:29.726Z,35.52
2018-05-12T10:24:29.364Z,35.62
2018-05-12T10:26:22.561Z,36.70
2018-05-12T10:27:22.273Z,36.99
2018-05-12T10:29:15.667Z,36.22
2018-05-12T10:30:15.643Z,36.80
2018-05-12T10:32:08.557Z,36.80
2018-05-12T10:33:08.547Z,36.51
2018-05-12T10:35:02.979Z,35.83
2018-05-12T10:36:02.928Z,36.32
2018-05-12T10:37:56.123Z,35.83
2018-05-12T10:38:55.823Z,36.12
2018-05-12T10:40:48.850Z,36.51
2018-05-12T10:41:48.739Z,36.58
2018-05-12T10:43:41.904Z,37.96
2018-05-12T10:44:41.658Z,39.22
2018-05-12T10:46:35.264Z,37.96
2018-05-12T10:47:34.979Z,36.12
2018-05-12T10:49:28.454Z,35.64
2018-05-12T10:50:28.381Z,35.35
2018-05-12T10:52:22.130Z,36.02
2018-05-12T10:53:21.259Z,36.99
2018-05-12T10:55:14.785Z,36.60
2018-05-12T10:56:14.138Z,36.91
2018-05-12T10:58:07.551Z,36.99
2018-05-12T10:59:07.771Z,36.32
2018-05-12T11:01:00.625Z,36.70
2018-05-12T11:02:00.476Z,36.90
2018-05-12T11:03:54.388Z,36.70
2018-05-12T11:04:53.795Z,36.51
2018-05-12T11:06:47.028Z,36.70
2018-05-12T11:07:46.743Z,36.99
2018-05-12T11:09:39.628Z,36.32
2018-05-12T11:10:39.603Z,36.12
2018-05-12T11:12:32.783Z,35.35
2018-05-12T11:13:32.501Z,35.54
2018-05-12T11:15:26.180Z,36.90
2018-05-12T11:16:25.916Z,36.90
2018-05-12T11:18:18.841Z,36.70
2018-05-12T11:19:18.766Z,36.99
2018-05-12T11:21:11.948Z,37.67
2018-05-12T11:22:11.685Z,37.67
2018-05-12T11:24:05.303Z,38.93
2018-05-12T11:25:05.034Z,37.67
2018-05-12T11:26:58.210Z,36.41
2018-05-12T11:27:57.937Z,36.90
2018-05-12T11:29:51.360Z,36.70
2018-05-12T11:30:51.357Z,35.54
2018-05-12T11:32:45.007Z,36.24
2018-05-12T11:33:44.724Z,37.11
2018-05-12T11:35:38.357Z,35.94
2018-05-12T11:36:38.108Z,36.33
2018-05-12T11:38:31.782Z,36.04
2018-05-12T11:39:31.501Z,35.75
2018-05-12T11:41:24.900Z,35.36
2018-05-12T11:42:25.074Z,35.66
2018-05-12T11:44:18.059Z,36.62
2018-05-12T11:45:17.757Z,36.90
2018-05-12T11:47:10.883Z,35.93
2018-05-12T11:48:10.652Z,36.12
2018-05-12T11:50:03.552Z,36.90
2018-05-12T11:51:03.554Z,36.78
2018-05-12T11:52:56.732Z,36.22
2018-05-12T11:53:56.449Z,36.12
2018-05-12T11:55:49.602Z,36.60
2018-05-12T11:56:49.403Z,36.90
2018-05-12T11:58:42.245Z,36.51
2018-05-12T11:59:42.208Z,36.51
2018-05-12T12:01:35.828Z,35.93
2018-05-12T12:02:35.659Z,36.12
2018-05-12T12:04:28.733Z,36.32
2018-05-12T12:05:28.503Z,35.73
2018-05-12T12:07:21.883Z,36.12
2018-05-12T12:08:21.857Z,36.41
2018-05-12T12:10:15.627Z,36.80
2018-05-12T12:11:14.749Z,36.80
2018-05-12T12:13:07.971Z,38.15
2018-05-12T12:14:07.686Z,38.93
2018-05-12T12:16:01.070Z,38.83
2018-05-12T12:17:01.043Z,37.87
2018-05-12T12:18:54.441Z,36.72
2018-05-12T12:19:54.421Z,36.72
2018-05-12T12:21:47.587Z,36.43
2018-05-12T12:22:47.297Z,36.14
2018-05-12T12:24:40.465Z,36.62
2018-05-12T12:25:40.217Z,36.04
2018-05-12T12:27:33.848Z,36.82
2018-05-12T12:28:33.571Z,35.75
2018-05-12T12:30:26.851Z,34.69
2018-05-12T12:31:26.461Z,34.49
2018-05-12T12:33:19.665Z,35.56
2018-05-12T12:34:19.406Z,35.17
2018-05-12T12:36:12.786Z,34.96
2018-05-12T12:37:12.760Z,34.96
2018-05-12T12:39:05.966Z,35.54
2018-05-12T12:40:05.660Z,35.93
2018-05-12T12:41:59.032Z,35.83
2018-05-12T12:42:59.019Z,35.27
2018-05-12T12:44:52.155Z,34.09
2018-05-12T12:45:51.929Z,34.67
2018-05-12T12:47:45.038Z,34.86
2018-05-12T12:48:44.864Z,35.05
2018-05-12T12:50:38.269Z,34.77
2018-05-12T12:51:37.763Z,35.05
2018-05-12T12:53:30.595Z,34.38
2018-05-12T12:54:30.589Z,34.57
2018-05-12T12:56:24.117Z,34.67
2018-05-12T12:57:23.964Z,35.05
2018-05-12T12:59:16.868Z,34.09
2018-05-12T13:00:16.848Z,34.47
2018-05-12T13:02:10.576Z,34.47
2018-05-12T13:03:10.239Z,34.67
2018-05-12T13:05:03.650Z,35.36
2018-05-12T13:06:03.606Z,35.36
2018-05-12T13:07:57.217Z,35.36
2018-05-12T13:08:56.989Z,35.36
2018-05-12T13:10:50.160Z,35.46
2018-05-12T13:11:49.903Z,35.07
2018-05-12T13:13:42.842Z,36.43
2018-05-12T13:14:42.778Z,36.72
2018-05-12T13:16:35.677Z,35.56
2018-05-12T13:17:35.670Z,35.36
2018-05-12T13:19:28.791Z,35.77
2018-05-12T13:20:28.572Z,35.66
2018-05-12T13:22:21.730Z,34.49
2018-05-12T13:23:21.444Z,34.49
2018-05-12T13:25:14.422Z,33.62
2018-05-12T13:26:14.321Z,33.23
2018-05-12T13:28:07.401Z,32.26
2018-05-12T13:29:07.219Z,31.97
2018-05-12T13:31:00.145Z,31.87
2018-05-12T13:32:00.682Z,32.26
2018-05-12T13:33:53.022Z,32.18
2018-05-12T13:34:53.002Z,32.18
2018-05-12T13:36:46.102Z,32.86
2018-05-12T13:37:45.889Z,33.25
2018-05-12T13:39:39.055Z,32.46
2018-05-12T13:40:38.769Z,32.17
2018-05-12T13:42:31.970Z,33.34
2018-05-12T13:43:31.665Z,34.12
2018-05-12T13:45:24.860Z,34.31
2018-05-12T13:46:24.563Z,33.73
2018-05-12T13:48:17.463Z,33.73
2018-05-12T13:49:17.452Z,33.92
2018-05-12T13:51:11.141Z,33.34
2018-05-12T13:52:10.844Z,33.25
2018-05-12T13:54:04.240Z,33.25
2018-05-12T13:55:04.223Z,33.25
2018-05-12T13:56:57.692Z,33.84
2018-05-12T13:57:57.104Z,34.62
2018-05-12T13:59:50.534Z,33.65
2018-05-12T14:00:50.494Z,33.56
2018-05-12T14:02:44.156Z,34.53
2018-05-12T14:03:43.880Z,35.69
2018-05-12T14:05:37.288Z,35.21
2018-05-12T14:06:37.547Z,34.72
2018-05-12T14:08:30.435Z,35.30
2018-05-12T14:09:30.147Z,35.30
2018-05-12T14:11:23.790Z,35.49
2018-05-12T14:12:23.548Z,35.21
2018-05-12T14:14:17.282Z,34.43
2018-05-12T14:15:16.989Z,35.78
2018-05-12T14:17:10.063Z,36.76
2018-05-12T14:18:09.851Z,36.08
2018-05-12T14:20:02.988Z,35.11
2018-05-12T14:21:02.690Z,34.89
2018-05-12T14:22:56.103Z,35.78
2018-05-12T14:23:56.077Z,35.88
2018-05-12T14:25:49.041Z,35.88
2018-05-12T14:26:49.201Z,36.18
2018-05-12T14:28:43.227Z,36.56
2018-05-12T14:29:42.361Z,37.15
2018-05-12T14:31:36.019Z,36.66
2018-05-12T14:32:35.754Z,36.83
2018-05-12T14:34:28.729Z,36.36
2018-05-12T14:35:28.643Z,36.83
2018-05-12T14:37:21.787Z,36.44
2018-05-12T14:38:21.838Z,36.44
2018-05-12T14:40:15.047Z,36.27
2018-05-12T14:41:14.413Z,36.36
2018-05-12T14:43:08.087Z,36.44
2018-05-12T14:44:07.818Z,36.25
2018-05-12T14:46:01.277Z,37.03
2018-05-12T14:47:00.741Z,37.51
2018-05-12T14:48:54.165Z,37.03
2018-05-12T14:49:54.107Z,36.93
2018-05-12T14:51:47.242Z,36.93
2018-05-12T14:52:46.993Z,36.93
2018-05-12T14:54:40.616Z,38.68
2018-05-12T14:55:40.371Z,38.78
2018-05-12T14:57:33.505Z,38.96
2018-05-12T14:58:33.285Z,38.78
2018-05-12T15:00:26.911Z,38.39
2018-05-12T15:01:26.614Z,38.29
2018-05-12T15:03:19.701Z,37.41
2018-05-12T15:04:19.623Z,38.00
2018-05-12T15:06:12.787Z,37.23
2018-05-12T15:07:12.519Z,38.09
2018-05-12T15:09:05.444Z,39.06
2018-05-12T15:10:05.447Z,39.06
2018-05-12T15:11:58.601Z,39.06
2018-05-12T15:12:58.313Z,38.87
2018-05-12T15:14:51.492Z,39.06
2018-05-12T15:15:51.238Z,39.08
2018-05-12T15:17:44.913Z,39.26
2018-05-12T15:18:44.576Z,39.55
2018-05-12T15:20:38.282Z,38.87
2018-05-12T15:21:37.991Z,38.96
2018-05-12T15:23:31.628Z,39.62
2018-05-12T15:24:31.366Z,39.92
2018-05-12T15:26:24.800Z,39.82
2018-05-12T15:27:24.751Z,40.50
2018-05-12T15:29:17.657Z,41.08
2018-05-12T15:30:17.647Z,40.50
2018-05-12T15:32:11.056Z,40.79
2018-05-12T15:33:11.026Z,40.89
2018-05-12T15:35:04.691Z,41.08
2018-05-12T15:36:04.395Z,41.27
2018-05-12T15:37:57.591Z,41.55
2018-05-12T15:38:57.304Z,42.44
2018-05-12T15:40:50.964Z,41.45
2018-05-12T15:41:50.665Z,41.55
2018-05-12T15:43:43.960Z,41.35
2018-05-12T15:44:43.590Z,41.35
2018-05-12T15:46:37.310Z,41.25
2018-05-12T15:47:37.310Z,41.45
2018-05-12T15:49:31.088Z,41.64
2018-05-12T15:50:30.717Z,40.48
2018-05-12T15:52:24.702Z,40.86
2018-05-12T15:53:23.601Z,41.45
2018-05-12T15:55:17.044Z,41.82
2018-05-12T15:56:16.963Z,41.82
2018-05-12T15:58:09.891Z,41.24
2018-05-12T15:59:09.862Z,41.33
2018-05-12T16:01:03.496Z,41.91
2018-05-12T16:02:03.247Z,41.33
2018-05-12T16:03:56.653Z,41.72
2018-05-12T16:04:56.809Z,41.14
2018-05-12T16:06:49.708Z,41.33
2018-05-12T16:07:49.517Z,41.24
2018-05-12T16:09:42.480Z,41.91
2018-05-12T16:10:42.402Z,42.00
2018-05-12T16:12:35.478Z,42.00
2018-05-12T16:13:35.304Z,42.10
2018-05-12T16:15:28.523Z,42.40
2018-05-12T16:16:28.485Z,42.20
2018-05-12T16:18:21.711Z,41.74
2018-05-12T16:19:21.364Z,42.13
2018-05-12T16:21:14.784Z,42.03
2018-05-12T16:22:14.738Z,41.74
2018-05-12T16:24:07.729Z,42.41
2018-05-12T16:25:07.648Z,42.41
2018-05-12T16:27:01.251Z,43.77
2018-05-12T16:28:01.047Z,43.19
2018-05-12T16:29:54.417Z,43.46
2018-05-12T16:30:54.407Z,42.97
2018-05-12T16:32:48.079Z,43.37
2018-05-12T16:33:47.808Z,43.65
2018-05-12T16:35:40.979Z,44.33
2018-05-12T16:36:40.698Z,44.13
2018-05-12T16:38:33.603Z,43.75
2018-05-12T16:39:33.610Z,44.23
2018-05-12T16:41:26.522Z,44.23
2018-05-12T16:42:26.493Z,43.46
2018-05-12T16:44:19.415Z,43.65
2018-05-12T16:45:19.405Z,43.95
2018-05-12T16:47:12.532Z,42.97
2018-05-12T16:48:12.312Z,43.07
2018-05-12T16:50:05.514Z,43.46
2018-05-12T16:51:05.258Z,43.65
2018-05-12T16:52:58.592Z,43.65
2018-05-12T16:53:58.660Z,43.65
2018-05-12T16:55:51.446Z,43.65
2018-05-12T16:56:51.395Z,43.44
2018-05-12T16:58:45.127Z,44.13
2018-05-12T16:59:45.014Z,44.33
2018-05-12T17:01:38.796Z,43.73
2018-05-12T17:02:37.889Z,44.33
2018-05-12T17:04:30.984Z,44.70
2018-05-12T17:05:30.885Z,44.50
2018-05-12T17:07:24.603Z,44.79
2018-05-12T17:08:24.594Z,44.70
2018-05-12T17:10:22.715Z,44.89
2018-05-12T17:11:21.226Z,44.79
2018-05-12T17:13:13.086Z,44.50
2018-05-12T17:14:12.852Z,44.98
2018-05-12T17:16:04.661Z,44.79
2018-05-12T17:17:04.353Z,44.50
2018-05-12T17:18:57.585Z,44.60
2018-05-12T17:19:57.649Z,44.89
2018-05-12T17:21:51.602Z,45.18
2018-05-12T17:22:51.384Z,45.06
2018-05-12T17:24:45.581Z,45.28
2018-05-12T17:25:44.131Z,44.96
2018-05-12T17:27:59.757Z,45.54
2018-05-12T17:31:36.275Z,45.64
2018-05-12T17:34:49.580Z,46.12
2018-05-12T17:38:04.350Z,46.51
2018-05-12T17:39:04.463Z,46.58
2018-05-12T17:41:50.350Z,47.48
2018-05-12T17:42:48.832Z,47.09
2018-05-12T17:45:33.921Z,47.36
2018-05-12T17:46:34.051Z,47.45
2018-05-12T17:48:27.636Z,47.16
2018-05-12T17:51:21.217Z,47.26
2018-05-12T17:52:20.323Z,47.16
2018-05-12T17:54:31.064Z,47.74
2018-05-12T17:57:08.522Z,48.71
2018-05-12T17:58:07.973Z,48.71
2018-05-12T18:00:01.171Z,48.32
2018-05-12T18:01:01.234Z,48.23
2018-05-12T18:02:54.656Z,48.42
2018-05-12T18:03:54.459Z,48.32
2018-05-12T18:05:47.880Z,49.39
2018-05-12T18:06:47.225Z,49.29
2018-05-12T18:08:43.993Z,48.59
2018-05-12T18:11:35.431Z,49.46
2018-05-12T18:12:35.309Z,49.27
2018-05-12T18:14:29.466Z,49.85
2018-05-12T18:16:43.251Z,49.75
2018-05-12T18:17:42.890Z,49.75
2018-05-12T18:19:36.633Z,49.55
2018-05-12T18:20:37.540Z,49.73
2018-05-12T18:22:29.614Z,49.34
2018-05-12T18:25:36.676Z,50.01
2018-05-12T18:28:21.012Z,50.79
2018-05-12T18:29:20.668Z,50.89
2018-05-12T18:31:15.313Z,50.50
2018-05-12T18:34:45.886Z,50.76
2018-05-12T18:38:40.379Z,51.34
2018-05-12T18:44:11.015Z,52.40
2018-05-12T18:45:11.147Z,52.57
2018-05-12T18:47:58.069Z,52.95
2018-05-12T18:48:55.050Z,52.76
2018-05-12T18:50:46.579Z,53.25
2018-05-12T18:51:47.204Z,53.73
2018-05-12T18:54:33.472Z,54.66
2018-05-12T18:57:28.956Z,56.21
2018-05-12T19:00:16.963Z,56.30
2018-05-12T19:01:17.030Z,56.85
2018-05-12T19:03:10.427Z,57.05
2018-05-12T19:04:10.342Z,57.05